createdAt,value
2018-01-11T00:00:58.106Z,16.50
2018-01-11T00:03:25.200Z,11.00
2018-01-11T00:05:53.044Z,16.93
2018-01-11T00:08:20.193Z,14.40
2018-01-11T00:10:46.554Z,11.57
2018-01-11T00:13:12.941Z,17.87
2018-01-11T00:15:39.283Z,19.93
2018-01-11T00:18:06.326Z,19.30
2018-01-11T00:20:32.745Z,19.17
2018-01-11T00:22:59.337Z,12.30
2018-01-11T00:25:25.684Z,13.00
2018-01-11T00:27:52.030Z,13.00
2018-01-11T00:30:18.397Z,15.20
2018-01-11T00:32:45.484Z,18.50
2018-01-11T00:35:11.864Z,21.40
2018-01-11T00:37:38.193Z,23.70
2018-01-11T00:40:05.148Z,19.17
2018-01-11T00:42:31.554Z,21.43
2018-01-11T00:44:58.662Z,19.00
2018-01-11T00:47:25.036Z,22.53
2018-01-11T00:49:52.229Z,16.07
2018-01-11T00:52:18.625Z,18.83
2018-01-11T00:54:45.006Z,18.47
2018-01-11T00:57:12.186Z,23.80
2018-01-11T00:59:38.600Z,19.70
2018-01-11T01:02:06.729Z,21.10
2018-01-11T01:04:33.917Z,27.13
2018-01-11T01:07:00.490Z,25.93
2018-01-11T01:09:26.951Z,31.53
2018-01-11T01:11:53.318Z,20.33
2018-01-11T01:14:19.687Z,26.43
2018-01-11T01:16:46.031Z,20.37
2018-01-11T01:19:12.414Z,29.40
2018-01-11T01:21:38.755Z,19.87
2018-01-11T01:24:06.186Z,18.00
2018-01-11T01:26:33.306Z,27.90
2018-01-11T01:28:59.702Z,20.37
2018-01-11T01:31:26.054Z,19.87
2018-01-11T01:33:52.402Z,24.00
2018-01-11T01:36:19.509Z,22.47
2018-01-11T01:38:45.838Z,18.83
2018-01-11T01:41:12.275Z,22.97
2018-01-11T01:43:38.639Z,25.63
2018-01-11T01:46:05.617Z,26.40
2018-01-11T01:48:42.250Z,35.47
2018-01-11T01:51:08.589Z,31.40
2018-01-11T01:53:34.935Z,39.13
2018-01-11T01:56:01.277Z,36.70
2018-01-11T01:58:27.658Z,43.83
2018-01-11T02:00:54.039Z,33.87
2018-01-11T02:03:20.390Z,43.00
2018-01-11T02:05:46.728Z,37.30
2018-01-11T02:08:13.847Z,27.80
2018-01-11T02:10:40.183Z,27.70
2018-01-11T02:13:07.260Z,33.70
2018-01-11T02:15:33.743Z,33.73
2018-01-11T02:18:00.087Z,27.07
2018-01-11T02:20:27.187Z,26.53
2018-01-11T02:22:54.271Z,25.57
2018-01-11T02:25:20.612Z,31.10
2018-01-11T02:27:46.999Z,39.70
2018-01-11T02:30:14.088Z,27.30
2018-01-11T02:32:40.431Z,21.57
2018-01-11T02:35:07.538Z,23.80
2018-01-11T02:37:33.896Z,27.37
2018-01-11T02:40:00.286Z,32.03
2018-01-11T02:42:26.658Z,29.47
2018-01-11T02:44:53.034Z,20.67
2018-01-11T02:47:19.487Z,26.07
2018-01-11T02:49:45.851Z,22.63
2018-01-11T02:52:12.230Z,27.93
2018-01-11T02:54:38.626Z,22.50
2018-01-11T02:57:05.259Z,25.67
2018-01-11T02:59:32.358Z,21.33
2018-01-11T03:01:58.769Z,23.10
2018-01-11T03:04:25.894Z,25.50
2018-01-11T03:06:52.294Z,25.80
2018-01-11T03:09:18.659Z,22.97
2018-01-11T03:11:45.063Z,27.33
2018-01-11T03:14:11.420Z,22.97
2018-01-11T03:16:38.526Z,23.20
2018-01-11T03:19:05.256Z,18.70
2018-01-11T03:21:31.616Z,29.73
2018-01-11T03:23:58.160Z,23.33
2018-01-11T03:26:24.582Z,28.37
2018-01-11T03:28:50.927Z,30.67
2018-01-11T03:31:17.370Z,31.33
2018-01-11T03:33:43.776Z,21.63
2018-01-11T03:36:10.201Z,30.60
2018-01-11T03:38:36.802Z,27.67
2018-01-11T03:41:03.313Z,25.53
2018-01-11T03:43:30.478Z,21.70
2018-01-11T03:45:56.887Z,31.70
2018-01-11T03:48:23.370Z,26.63
2018-01-11T03:50:49.699Z,30.13
2018-01-11T03:53:16.035Z,19.87
2018-01-11T03:55:42.359Z,21.60
2018-01-11T03:58:08.724Z,24.30
2018-01-11T04:00:35.942Z,21.23
2018-01-11T04:03:03.135Z,22.37
2018-01-11T04:05:29.495Z,21.97
2018-01-11T04:07:55.814Z,21.90
2018-01-11T04:10:22.191Z,26.60
2018-01-11T04:12:48.510Z,24.17
2018-01-11T04:15:14.871Z,32.30
2018-01-11T04:17:41.195Z,32.20
2018-01-11T04:20:07.605Z,26.20
2018-01-11T04:22:34.670Z,24.77
2018-01-11T04:25:01.003Z,28.17
2018-01-11T04:27:27.371Z,27.30
2018-01-11T04:29:54.511Z,33.20
2018-01-11T04:32:20.846Z,34.90
2018-01-11T04:34:47.190Z,24.17
2018-01-11T04:37:13.559Z,21.30
2018-01-11T04:39:40.086Z,25.13
2018-01-11T04:42:06.871Z,23.90
2018-01-11T04:44:33.174Z,23.93
2018-01-11T04:47:00.295Z,24.73
2018-01-11T04:49:26.622Z,30.50
2018-01-11T04:51:52.966Z,28.80
2018-01-11T04:54:19.294Z,34.23
2018-01-11T04:56:45.638Z,29.13
2018-01-11T04:59:12.218Z,28.40
2018-01-11T05:01:38.755Z,23.83
2018-01-11T05:04:05.788Z,24.90
2018-01-11T05:06:32.114Z,31.10
2018-01-11T05:08:58.544Z,31.83
2018-01-11T05:11:24.934Z,25.00
2018-01-11T05:13:51.278Z,30.80
2018-01-11T05:16:17.875Z,34.47
2018-01-11T05:18:44.962Z,40.00
2018-01-11T05:21:17.262Z,50.03
2018-01-11T05:23:43.671Z,47.70
2018-01-11T05:26:10.025Z,40.33
2018-01-11T05:28:36.438Z,47.67
2018-01-11T05:31:03.597Z,71.90
2018-01-11T05:33:30.728Z,62.07
2018-01-11T05:35:57.094Z,53.43
2018-01-11T05:38:23.440Z,59.33
2018-01-11T05:40:49.895Z,53.27
2018-01-11T05:43:16.330Z,60.73
2018-01-11T05:45:42.776Z,64.20
2018-01-11T05:48:09.192Z,61.37
2018-01-11T05:50:36.370Z,70.63
2018-01-11T05:53:02.802Z,63.00
2018-01-11T05:55:29.910Z,55.73
2018-01-11T05:57:56.302Z,52.70
2018-01-11T06:00:22.635Z,60.50
2018-01-11T06:02:49.163Z,64.67
2018-01-11T06:05:15.591Z,51.10
2018-01-11T06:07:41.997Z,56.27
2018-01-11T06:10:09.820Z,62.73
2018-01-11T06:12:36.196Z,62.37
2018-01-11T06:15:03.028Z,71.90
2018-01-11T06:17:29.706Z,62.77
2018-01-11T06:19:56.030Z,60.63
2018-01-11T06:22:22.350Z,63.50
2018-01-11T06:24:48.832Z,56.40
2018-01-11T06:27:15.182Z,61.20
2018-01-11T06:29:41.674Z,49.90
2018-01-11T06:32:08.455Z,64.03
2018-01-11T06:34:34.855Z,58.27
2018-01-11T06:37:02.106Z,54.60
2018-01-11T06:39:29.254Z,70.13
2018-01-11T06:41:55.586Z,68.00
2018-01-11T06:44:21.959Z,58.50
2018-01-11T06:46:48.347Z,64.17
2018-01-11T06:49:14.716Z,50.27
2018-01-11T06:51:42.127Z,57.80
2018-01-11T06:54:09.219Z,54.77
2018-01-11T06:56:36.139Z,50.67
2018-01-11T06:59:03.630Z,66.37
2018-01-11T07:01:30.167Z,62.43
2018-01-11T07:03:56.573Z,55.97
2018-01-11T07:06:22.994Z,65.47
2018-01-11T07:08:49.449Z,60.83
2018-01-11T07:11:15.953Z,48.20
2018-01-11T07:13:42.446Z,51.93
2018-01-11T07:16:08.982Z,50.87
2018-01-11T07:18:36.196Z,49.70
2018-01-11T07:21:02.710Z,59.20
2018-01-11T07:23:29.331Z,55.13
2018-01-11T07:25:57.313Z,42.77
2018-01-11T07:28:23.799Z,56.70
2018-01-11T07:30:50.331Z,59.47
2018-01-11T07:33:17.571Z,51.43
2018-01-11T07:35:44.062Z,62.60
2018-01-11T07:38:10.470Z,38.97
2018-01-11T07:40:36.874Z,47.87
2018-01-11T07:43:04.697Z,42.83
2018-01-11T07:45:32.051Z,71.27
2018-01-11T07:47:58.572Z,58.27
2018-01-11T09:12:21.483Z,30.90
2018-01-11T09:14:48.662Z,25.00
2018-01-11T09:17:15.022Z,30.47
2018-01-11T09:19:41.424Z,27.60
2018-01-11T09:22:07.849Z,36.57
2018-01-11T09:24:34.298Z,32.27
2018-01-11T09:27:00.723Z,38.40
2018-01-11T09:29:27.180Z,26.37
2018-01-11T09:31:53.712Z,28.70
2018-01-11T09:34:20.098Z,25.97
2018-01-11T09:36:46.641Z,46.17
2018-01-11T09:39:13.837Z,32.73
2018-01-11T09:41:40.295Z,25.70
2018-01-11T09:44:07.580Z,22.10
2018-01-11T09:46:34.821Z,25.73
2018-01-11T09:49:01.224Z,30.17
2018-01-11T09:51:27.742Z,29.80
2018-01-11T09:53:54.850Z,26.70
2018-01-11T09:56:21.666Z,28.70
2018-01-11T09:58:48.842Z,20.83
2018-01-11T10:01:15.307Z,19.30
2018-01-11T10:03:41.723Z,18.97
2018-01-11T10:06:08.250Z,20.00
2018-01-11T10:08:34.764Z,20.70
2018-01-11T10:11:01.172Z,22.07
2018-01-11T10:13:27.675Z,19.53
2018-01-11T10:15:54.128Z,18.23
2018-01-11T10:18:21.597Z,21.30
2018-01-11T10:20:48.295Z,21.13
2018-01-11T10:23:14.755Z,17.60
2018-01-11T10:25:41.159Z,19.23
2018-01-11T10:28:07.618Z,24.93
2018-01-11T10:30:34.903Z,21.00
2018-01-11T10:33:01.339Z,19.07
2018-01-11T10:35:27.799Z,21.27
2018-01-11T10:37:54.279Z,19.70
2018-01-11T10:40:20.708Z,21.80
2018-01-11T10:42:47.211Z,22.00
2018-01-11T10:45:14.375Z,24.20
2018-01-11T10:47:40.800Z,26.83
2018-01-11T10:50:07.194Z,22.27
2018-01-11T10:52:34.454Z,22.10
2018-01-11T10:55:00.891Z,20.30
2018-01-11T10:57:28.083Z,20.20
2018-01-11T10:59:55.299Z,20.13
2018-01-11T11:02:27.799Z,26.93
2018-01-11T11:04:54.227Z,17.20
2018-01-11T11:07:20.734Z,17.47
2018-01-11T11:09:47.189Z,20.07
2018-01-11T11:12:15.927Z,22.20
2018-01-11T11:14:42.367Z,20.60
2018-01-11T11:17:09.643Z,21.43
2018-01-11T11:19:36.227Z,25.90
2018-01-11T11:22:02.839Z,21.40
2018-01-11T11:24:29.318Z,21.17
2018-01-11T11:26:55.824Z,21.60
2018-01-11T11:29:22.508Z,25.20
2018-01-11T11:31:49.092Z,24.33
2018-01-11T11:34:15.550Z,30.57
2018-01-11T11:36:42.026Z,20.00
2018-01-11T11:39:08.495Z,18.10
2018-01-11T11:41:35.068Z,23.27
2018-01-11T11:44:01.587Z,18.83
2018-01-11T11:46:28.031Z,24.23
2018-01-11T11:48:54.557Z,20.07
2018-01-11T11:51:20.991Z,27.37
2018-01-11T11:53:48.195Z,35.13
2018-01-11T11:56:15.650Z,24.63
2018-01-11T11:58:42.047Z,32.27
2018-01-11T12:01:09.223Z,35.93
2018-01-11T12:03:35.898Z,30.90
2018-01-11T12:06:02.553Z,24.03
2018-01-11T12:08:29.047Z,24.30
2018-01-11T12:10:55.458Z,28.10
2018-01-11T12:13:21.901Z,32.90
2018-01-11T12:15:49.102Z,31.40
2018-01-11T12:18:15.700Z,25.47
2018-01-11T12:20:42.204Z,25.37
2018-01-11T12:23:09.474Z,22.43
2018-01-11T12:25:36.037Z,28.50
2018-01-11T12:28:02.536Z,22.10
2018-01-11T12:30:29.827Z,24.40
2018-01-11T12:32:57.077Z,23.13
2018-01-11T12:35:23.540Z,20.53
2018-01-11T12:37:50.019Z,24.23
2018-01-11T12:40:16.492Z,19.60
2018-01-11T12:42:43.009Z,25.40
2018-01-11T12:45:09.614Z,25.43
2018-01-11T12:47:36.037Z,21.83
2018-01-11T12:50:02.545Z,19.37
2018-01-11T12:52:29.062Z,19.50
2018-01-11T12:54:55.519Z,20.10
2018-01-11T12:57:22.019Z,24.60
2018-01-11T12:59:49.173Z,19.07
2018-01-11T13:02:15.663Z,24.07
2018-01-11T13:04:42.244Z,23.43
2018-01-11T13:07:08.822Z,19.90
2018-01-11T13:09:35.187Z,27.17
2018-01-11T13:12:02.567Z,19.33
2018-01-11T13:14:30.126Z,20.87
2018-01-11T13:16:56.539Z,24.33
2018-01-11T13:19:23.019Z,23.43
2018-01-11T13:21:49.414Z,32.80
2018-01-11T13:24:15.812Z,24.23
2018-01-11T13:26:42.263Z,21.93
2018-01-11T13:29:09.323Z,24.17
2018-01-11T13:31:37.503Z,23.10
2018-01-11T13:34:05.087Z,26.60
2018-01-11T13:36:31.532Z,19.20
2018-01-11T13:38:58.101Z,23.03
2018-01-11T13:41:24.600Z,19.60
2018-01-11T13:43:50.979Z,20.93
2018-01-11T13:46:17.414Z,22.60
2018-01-11T13:48:44.368Z,22.87
2018-01-11T13:51:10.803Z,22.27
2018-01-11T13:53:37.234Z,22.07
2018-01-11T13:56:04.292Z,21.23
2018-01-11T13:58:30.780Z,21.57
2018-01-11T14:00:57.968Z,21.20
2018-01-11T14:03:24.435Z,20.77
2018-01-11T14:05:50.894Z,18.07
2018-01-11T14:08:17.364Z,18.23
2018-01-11T14:10:43.867Z,21.30
2018-01-11T14:13:11.023Z,24.13
2018-01-11T14:15:37.598Z,26.17
2018-01-11T14:18:05.449Z,22.03
2018-01-11T14:20:31.887Z,30.67
2018-01-11T14:22:58.404Z,30.37
2018-01-11T14:25:25.083Z,30.90
2018-01-11T14:27:52.277Z,38.40
2018-01-11T14:30:18.809Z,42.67
2018-01-11T14:32:45.316Z,45.60
2018-01-11T14:35:11.687Z,52.00
2018-01-11T14:37:38.380Z,49.73
2018-01-11T14:40:05.075Z,33.20
2018-01-11T14:42:31.525Z,48.37
2018-01-11T14:44:58.403Z,46.03
2018-01-11T14:47:24.827Z,42.07
2018-01-11T14:49:51.321Z,37.13
2018-01-11T14:52:17.804Z,36.00
2018-01-11T14:54:44.343Z,54.60
2018-01-11T14:57:11.383Z,50.83
2018-01-11T14:59:40.791Z,40.07
2018-01-11T15:02:07.207Z,40.20
2018-01-11T15:04:33.655Z,43.37
2018-01-11T15:07:00.167Z,38.27
2018-01-11T15:09:26.579Z,33.13
2018-01-11T15:11:53.781Z,39.70
2018-01-11T15:14:20.243Z,43.03
2018-01-11T15:16:46.730Z,42.17
2018-01-11T15:19:13.114Z,38.57
2018-01-11T15:21:39.569Z,34.30
2018-01-11T15:24:06.008Z,33.17
2018-01-11T15:26:32.525Z,38.93
2018-01-11T15:28:58.983Z,36.73
2018-01-11T15:31:25.584Z,40.87
2018-01-11T15:33:52.087Z,44.13
2018-01-11T15:36:18.565Z,32.43
2018-01-11T15:38:45.068Z,36.60
2018-01-11T15:41:12.354Z,44.00
2018-01-11T15:43:38.862Z,44.57
2018-01-11T15:46:05.570Z,31.13
2018-01-11T15:48:34.587Z,35.97
2018-01-11T15:51:01.806Z,36.00
2018-01-11T15:53:31.348Z,45.70
2018-01-11T15:55:57.952Z,41.60
2018-01-11T15:58:25.253Z,46.27
2018-01-11T16:00:51.897Z,44.03
2018-01-11T16:03:19.068Z,48.60
2018-01-11T16:05:46.392Z,50.57
2018-01-11T16:08:12.892Z,56.03
2018-01-11T16:10:39.376Z,46.07
2018-01-11T16:13:06.176Z,47.00
2018-01-11T16:15:32.823Z,43.90
2018-01-11T16:17:59.518Z,44.30
2018-01-11T16:20:26.715Z,52.33
2018-01-11T16:22:53.101Z,38.67
2018-01-11T16:25:19.462Z,37.47
2018-01-11T16:27:45.844Z,37.43
2018-01-11T16:30:12.198Z,37.80
2018-01-11T16:32:38.548Z,39.10
2018-01-11T16:35:04.904Z,40.10
2018-01-11T16:37:31.254Z,42.33
2018-01-11T16:39:57.783Z,44.73
2018-01-11T16:42:24.206Z,49.67
2018-01-11T16:44:51.309Z,45.33
2018-01-11T16:47:17.655Z,50.50
2018-01-11T16:49:43.991Z,48.83
2018-01-11T16:52:10.364Z,50.93
2018-01-11T16:54:36.762Z,41.57
2018-01-11T16:57:03.883Z,45.33
2018-01-11T16:59:30.267Z,41.13
2018-01-11T17:01:56.627Z,40.60
2018-01-11T17:04:23.137Z,48.93
2018-01-11T17:06:49.527Z,45.57
2018-01-11T17:09:15.875Z,60.70
2018-01-11T17:11:42.240Z,54.07
2018-01-11T17:14:09.458Z,52.80
2018-01-11T17:16:35.870Z,58.97
2018-01-11T17:19:02.962Z,47.73
2018-01-11T17:21:29.371Z,59.07
2018-01-11T17:23:55.934Z,55.67
2018-01-11T17:26:22.283Z,53.10
2018-01-11T17:28:48.697Z,49.20
2018-01-11T17:31:15.073Z,54.80
2018-01-11T17:33:41.439Z,54.13
2018-01-11T17:36:07.798Z,57.97
2018-01-11T17:38:34.907Z,55.70
2018-01-11T17:41:01.287Z,68.60
2018-01-11T17:43:27.682Z,68.93
2018-01-11T17:45:54.036Z,64.57
2018-01-11T17:48:20.419Z,64.37
2018-01-11T17:50:46.777Z,58.53
2018-01-11T17:53:13.150Z,72.73
2018-01-11T17:55:40.227Z,65.17
2018-01-11T17:58:06.634Z,67.77
2018-01-11T18:00:33.756Z,75.23
2018-01-11T18:03:00.159Z,71.83
2018-01-11T18:05:26.578Z,66.90
2018-01-11T18:07:53.797Z,81.93
2018-01-11T18:10:20.172Z,79.13
2018-01-11T18:12:46.632Z,64.40
2018-01-11T18:15:12.963Z,83.30
2018-01-11T18:17:39.511Z,84.87
2018-01-11T18:20:06.683Z,97.13
2018-01-11T18:22:33.131Z,83.87
2018-01-11T18:24:59.562Z,88.50
2018-01-11T18:27:25.895Z,96.50
2018-01-11T18:29:52.254Z,72.33
2018-01-11T18:32:19.376Z,92.30
2018-01-11T18:34:45.803Z,80.50
2018-01-11T18:37:12.215Z,81.70
2018-01-11T18:39:39.392Z,80.37
2018-01-11T18:42:06.475Z,76.53
2018-01-11T18:44:32.832Z,61.10
2018-01-11T18:46:59.219Z,75.20
2018-01-11T18:49:26.428Z,79.00
2018-01-11T18:51:52.771Z,78.00
2018-01-11T18:54:19.212Z,78.60
2018-01-11T18:56:45.730Z,86.73
2018-01-11T18:59:12.095Z,67.13
2018-01-11T19:01:38.482Z,81.23
2018-01-11T19:04:05.942Z,93.47
2018-01-11T19:06:32.298Z,98.23
2018-01-11T19:08:58.681Z,93.83
2018-01-11T19:11:25.113Z,105.13
2018-01-11T19:13:51.573Z,92.80
2018-01-11T19:16:18.103Z,103.80
2018-01-11T19:18:45.284Z,95.77
2018-01-11T19:21:11.743Z,94.83
2018-01-11T19:23:38.137Z,90.83
2018-01-11T19:26:04.664Z,71.93
2018-01-11T19:28:32.103Z,92.30
2018-01-11T19:30:58.549Z,104.50
2018-01-11T19:33:25.055Z,83.10
2018-01-11T19:35:51.513Z,91.10
2018-01-11T19:38:18.659Z,113.53
2018-01-11T19:40:45.915Z,101.97
2018-01-11T19:43:12.389Z,127.37
2018-01-11T19:45:38.790Z,161.60
2018-01-11T19:48:05.987Z,148.37
2018-01-11T19:50:32.465Z,144.43
2018-01-11T19:52:58.871Z,148.60
2018-01-11T19:55:26.095Z,142.27
2018-01-11T19:57:52.493Z,164.80
2018-01-11T20:00:19.662Z,174.30
2018-01-11T20:02:46.023Z,157.53
2018-01-11T20:05:12.409Z,195.37
2018-01-11T20:07:39.619Z,199.83
2018-01-11T20:10:06.761Z,166.40
2018-01-11T20:12:33.170Z,178.13
2018-01-11T20:14:59.578Z,195.60
2018-01-11T20:17:26.001Z,178.70
2018-01-11T20:19:52.414Z,211.20
2018-01-11T20:22:18.802Z,216.47
2018-01-11T20:24:45.282Z,218.43
2018-01-11T20:27:11.677Z,212.80
2018-01-11T20:29:38.157Z,219.77
2018-01-11T20:32:05.239Z,200.43
2018-01-11T20:34:31.707Z,245.67
2018-01-11T20:36:58.850Z,249.40
2018-01-11T20:39:25.237Z,230.87
2018-01-11T20:41:51.615Z,193.30
2018-01-11T20:44:17.987Z,199.37
2018-01-11T20:46:45.887Z,189.77
2018-01-11T20:49:12.370Z,164.77
2018-01-11T20:51:38.751Z,167.27
2018-01-11T20:54:05.281Z,122.83
2018-01-11T20:56:32.441Z,142.83
2018-01-11T20:58:58.779Z,165.57
2018-01-11T21:01:25.204Z,146.20
2018-01-11T21:03:51.623Z,138.37
2018-01-11T21:06:18.076Z,147.30
2018-01-11T21:08:45.151Z,163.80
2018-01-11T21:11:11.503Z,143.93
2018-01-11T21:13:37.910Z,193.47
2018-01-11T21:16:04.517Z,169.03
2018-01-11T21:18:31.057Z,189.63
2018-01-11T21:20:57.452Z,187.83
2018-01-11T21:23:24.579Z,167.33
2018-01-11T21:25:51.063Z,191.73
2018-01-11T21:28:18.211Z,203.67
2018-01-11T21:30:44.604Z,175.07
2018-01-11T21:33:11.021Z,209.00
2018-01-11T21:35:37.467Z,224.20
2018-01-11T21:38:04.326Z,242.90
2018-01-11T21:40:30.785Z,231.27
2018-01-11T21:42:57.188Z,167.57
2018-01-11T21:45:23.615Z,159.70
2018-01-11T21:47:50.165Z,171.30
2018-01-11T21:50:16.605Z,171.53
2018-01-11T21:52:42.973Z,156.47
2018-01-11T21:55:09.451Z,167.63
2018-01-11T21:57:35.975Z,166.97
2018-01-11T22:00:02.405Z,163.60
2018-01-11T22:02:28.785Z,127.03
2018-01-11T22:04:55.210Z,143.33
2018-01-11T22:07:22.286Z,132.87
2018-01-11T22:09:48.635Z,163.30
2018-01-11T22:12:15.074Z,146.33
2018-01-11T22:14:41.510Z,154.23
2018-01-11T22:17:07.886Z,175.67
2018-01-11T22:19:34.282Z,190.73
2018-01-11T22:22:01.360Z,168.23
2018-01-11T22:24:27.810Z,177.87
2018-01-11T22:26:54.152Z,215.57
2018-01-11T22:29:20.462Z,156.83
2018-01-11T22:31:47.611Z,188.47
2018-01-11T22:34:13.991Z,177.40
2018-01-11T22:36:40.391Z,162.23
2018-01-11T22:39:06.731Z,199.37
2018-01-11T22:41:33.211Z,161.33
2018-01-11T22:44:00.310Z,202.60
2018-01-11T22:46:26.678Z,179.97
2018-01-11T22:48:53.058Z,185.43
2018-01-11T22:51:20.179Z,191.63
2018-01-11T22:53:46.531Z,184.17
2018-01-11T22:56:12.903Z,161.63
2018-01-11T22:58:39.358Z,160.27
2018-01-11T23:01:06.451Z,170.23
2018-01-11T23:03:32.815Z,175.83
2018-01-11T23:05:59.170Z,181.83
2018-01-11T23:08:25.566Z,176.27
2018-01-11T23:10:51.902Z,175.67
2018-01-11T23:13:19.003Z,141.70
2018-01-11T23:15:45.375Z,185.10
2018-01-11T23:18:11.767Z,134.67
2018-01-11T23:20:38.310Z,174.07
2018-01-11T23:23:04.849Z,145.83
2018-01-11T23:25:31.302Z,138.10
2018-01-11T23:27:58.382Z,150.13
2018-01-11T23:30:24.753Z,156.27
2018-01-11T23:32:51.097Z,154.93
2018-01-11T23:35:17.434Z,145.83
2018-01-11T23:37:43.774Z,177.37
2018-01-11T23:40:10.151Z,136.03
2018-01-11T23:42:36.544Z,145.93
2018-01-11T23:45:03.180Z,125.50
2018-01-11T23:47:29.574Z,153.00
2018-01-11T23:49:56.650Z,144.20
2018-01-11T23:52:23.018Z,140.00
2018-01-11T23:54:49.408Z,147.67
2018-01-11T23:57:15.730Z,125.90
2018-01-11T23:59:42.116Z,132.97
